createdAt,value
2018-09-01T00:02:25.016Z,14.41
2018-09-01T00:04:54.756Z,14.34
2018-09-01T00:07:24.910Z,14.14
2018-09-01T00:09:54.501Z,14.12
2018-09-01T00:12:24.122Z,14.07
2018-09-01T00:14:53.921Z,14.04
2018-09-01T00:17:28.563Z,14.04
2018-09-01T00:20:00.759Z,14.15
2018-09-01T00:22:30.800Z,14.02
2018-09-01T00:25:00.423Z,13.99
2018-09-01T00:27:30.199Z,14.00
2018-09-01T00:29:59.851Z,14.11
2018-09-01T00:32:29.923Z,14.01
2018-09-01T00:34:59.480Z,13.96
2018-09-01T00:37:34.681Z,13.93
2018-09-01T00:40:04.328Z,13.99
2018-09-01T00:42:33.862Z,13.98
2018-09-01T00:45:03.530Z,13.87
2018-09-01T00:47:33.142Z,13.80
2018-09-01T00:50:02.798Z,13.70
2018-09-01T00:52:32.425Z,13.61
2018-09-01T00:55:02.125Z,13.56
2018-09-01T00:57:31.966Z,13.43
2018-09-01T01:00:01.603Z,13.34
2018-09-01T01:02:31.614Z,13.39
2018-09-01T01:05:01.267Z,13.34
2018-09-01T01:07:31.233Z,13.36
2018-09-01T01:10:00.796Z,13.32
2018-09-01T01:12:30.717Z,13.24
2018-09-01T01:15:00.256Z,13.20
2018-09-01T01:17:30.124Z,13.19
2018-09-01T01:19:59.693Z,13.17
2018-09-01T01:22:29.376Z,13.10
2018-09-01T01:24:59.072Z,13.16
2018-09-01T01:27:28.717Z,12.93
2018-09-01T01:29:58.222Z,13.00
2018-09-01T01:32:27.861Z,12.75
2018-09-01T01:34:57.971Z,12.70
2018-09-01T01:37:27.557Z,12.64
2018-09-01T01:39:57.101Z,12.82
2018-09-01T01:42:26.738Z,12.76
2018-09-01T01:44:56.313Z,12.75
2018-09-01T01:47:25.867Z,13.00
2018-09-01T01:49:55.589Z,12.67
2018-09-01T01:52:25.155Z,12.64
2018-09-01T01:54:54.712Z,12.61
2018-09-01T01:57:30.589Z,12.79
2018-09-01T02:00:00.199Z,12.63
2018-09-01T02:02:37.123Z,12.79
2018-09-01T02:05:08.948Z,12.72
2018-09-01T02:07:39.479Z,12.35
2018-09-01T02:10:09.073Z,12.54
2018-09-01T02:12:38.864Z,12.63
2018-09-01T02:15:08.415Z,12.56
2018-09-01T02:17:38.209Z,12.50
2018-09-01T02:20:07.841Z,12.60
2018-09-01T02:22:37.950Z,12.54
2018-09-01T02:25:07.773Z,12.48
2018-09-01T02:27:37.669Z,12.37
2018-09-01T02:30:07.391Z,12.37
2018-09-01T02:32:37.236Z,12.20
2018-09-01T02:35:06.962Z,12.07
2018-09-01T02:37:36.951Z,11.87
2018-09-01T02:40:06.599Z,11.87
2018-09-01T02:42:36.212Z,11.80
2018-09-01T02:45:06.693Z,11.71
2018-09-01T02:47:36.316Z,11.66
2018-09-01T02:50:06.019Z,11.56
2018-09-01T02:52:35.630Z,11.59
2018-09-01T02:55:05.458Z,11.55
2018-09-01T02:57:35.097Z,11.74
2018-09-01T03:00:09.020Z,11.57
2018-09-01T03:02:43.804Z,11.37
2018-09-01T03:05:15.331Z,11.52
2018-09-01T03:07:45.111Z,11.28
2018-09-01T03:10:14.628Z,11.22
2018-09-01T03:12:44.264Z,11.18
2018-09-01T03:15:13.914Z,11.20
2018-09-01T03:17:44.008Z,11.12
2018-09-01T03:20:13.565Z,10.98
2018-09-01T03:22:43.553Z,10.91
2018-09-01T03:25:13.097Z,10.97
2018-09-01T03:27:43.791Z,10.82
2018-09-01T03:30:13.355Z,10.78
2018-09-01T03:32:43.332Z,10.79
2018-09-01T03:35:12.907Z,10.79
2018-09-01T03:37:42.765Z,10.94
2018-09-01T03:40:12.303Z,10.92
2018-09-01T03:42:42.246Z,10.94
2018-09-01T03:45:11.828Z,10.89
2018-09-01T03:47:41.505Z,10.76
2018-09-01T03:50:11.260Z,10.69
2018-09-01T03:52:40.911Z,10.72
2018-09-01T03:55:11.414Z,10.67
2018-09-01T03:57:40.967Z,10.58
2018-09-01T04:00:10.757Z,10.65
2018-09-01T04:02:40.331Z,10.62
2018-09-01T04:05:09.992Z,10.83
2018-09-01T04:07:39.708Z,10.87
2018-09-01T04:10:09.325Z,10.66
2018-09-01T04:12:39.715Z,10.56
2018-09-01T04:15:09.655Z,10.51
2018-09-01T04:17:39.221Z,10.64
2018-09-01T04:20:08.811Z,10.80
2018-09-01T04:22:38.496Z,10.66
2018-09-01T04:25:08.149Z,10.57
2018-09-01T04:27:37.862Z,10.51
2018-09-01T04:30:07.934Z,10.49
2018-09-01T04:32:37.485Z,10.47
2018-09-01T04:35:07.234Z,10.50
2018-09-01T04:37:36.757Z,10.55
2018-09-01T04:40:06.773Z,10.53
2018-09-01T04:42:36.426Z,10.85
2018-09-01T04:45:06.357Z,11.17
2018-09-01T04:47:35.962Z,11.20
2018-09-01T04:50:05.599Z,11.00
2018-09-01T04:52:35.176Z,10.92
2018-09-01T04:55:04.733Z,10.92
2018-09-01T04:57:34.388Z,10.95
2018-09-01T05:00:04.032Z,11.02
2018-09-01T05:02:33.637Z,11.10
2018-09-01T05:05:03.928Z,11.18
2018-09-01T05:07:33.562Z,11.29
2018-09-01T05:10:03.122Z,11.41
2018-09-01T05:12:32.684Z,11.58
2018-09-01T05:15:02.982Z,11.62
2018-09-01T05:17:36.076Z,11.74
2018-09-01T05:20:06.078Z,11.81
2018-09-01T05:22:35.913Z,11.92
2018-09-01T05:25:05.923Z,11.89
2018-09-01T05:27:35.511Z,12.05
2018-09-01T05:30:06.359Z,12.19
2018-09-01T05:32:35.924Z,12.23
2018-09-01T05:35:05.817Z,12.34
2018-09-01T05:37:36.160Z,12.52
2018-09-01T05:40:06.841Z,12.78
2018-09-01T05:42:37.011Z,12.82
2018-09-01T05:45:06.869Z,14.48
2018-09-01T05:47:36.492Z,15.78
2018-09-01T05:50:06.211Z,16.83
2018-09-01T05:52:35.761Z,19.68
2018-09-01T05:55:05.501Z,18.76
2018-09-01T05:57:35.084Z,19.03
2018-09-01T06:00:04.953Z,18.52
2018-09-01T06:02:34.593Z,19.76
2018-09-01T06:05:04.713Z,20.64
2018-09-01T06:10:03.032Z,19.67
2018-09-01T06:12:32.734Z,19.45
2018-09-01T06:15:05.332Z,19.93
2018-09-01T06:17:34.914Z,21.32
2018-09-01T06:20:04.596Z,20.14
2018-09-01T06:22:34.246Z,21.67
2018-09-01T06:25:04.121Z,20.45
2018-09-01T06:27:37.377Z,21.39
2018-09-01T06:30:09.319Z,20.89
2018-09-01T06:32:39.015Z,20.18
2018-09-01T06:35:09.897Z,23.28
2018-09-01T06:37:39.510Z,23.77
2018-09-01T06:40:09.063Z,22.47
2018-09-01T06:42:38.753Z,23.36
2018-09-01T06:45:08.897Z,23.53
2018-09-01T06:47:38.573Z,23.89
2018-09-01T06:50:08.190Z,20.39
2018-09-01T06:52:37.801Z,18.47
2018-09-01T06:55:07.529Z,20.16
2018-09-01T06:57:37.176Z,22.57
2018-09-01T07:00:07.141Z,21.59
2018-09-01T07:02:36.695Z,20.27
2018-09-01T07:05:06.609Z,16.80
2018-09-01T07:07:36.244Z,15.67
2018-09-01T07:10:06.597Z,16.01
2018-09-01T07:12:36.242Z,15.51
2018-09-01T07:15:05.880Z,16.05
2018-09-01T07:17:35.420Z,15.24
2018-09-01T07:20:05.074Z,15.05
2018-09-01T07:22:34.666Z,14.98
2018-09-01T07:25:04.506Z,14.88
2018-09-01T07:27:34.103Z,15.06
2018-09-01T07:30:04.368Z,15.22
2018-09-01T07:32:33.875Z,15.12
2018-09-01T07:35:03.996Z,15.34
2018-09-01T07:37:33.632Z,15.15
2018-09-01T07:40:03.679Z,15.30
2018-09-01T07:42:33.231Z,15.45
2018-09-01T07:45:03.172Z,15.25
2018-09-01T07:47:32.813Z,15.12
2018-09-01T07:50:02.903Z,15.31
2018-09-01T07:52:33.230Z,15.34
2018-09-01T07:55:03.589Z,15.79
2018-09-01T07:57:33.372Z,15.42
2018-09-01T08:00:03.466Z,15.28
2018-09-01T08:02:33.143Z,15.53
2018-09-01T08:05:03.216Z,15.57
2018-09-01T08:07:33.052Z,15.89
2018-09-01T08:10:02.642Z,16.13
2018-09-01T08:12:32.286Z,16.07
2018-09-01T08:15:02.178Z,16.20
2018-09-01T08:17:31.866Z,16.74
2018-09-01T08:20:01.590Z,17.02
2018-09-01T08:22:31.187Z,17.53
2018-09-01T08:25:00.861Z,17.02
2018-09-01T08:27:30.466Z,16.94
2018-09-01T08:30:00.052Z,17.33
2018-09-01T08:32:29.621Z,17.11
2018-09-01T08:34:59.273Z,16.85
2018-09-01T08:37:28.905Z,16.59
2018-09-01T08:39:58.636Z,16.44
2018-09-01T08:42:28.245Z,16.66
2018-09-01T08:44:58.043Z,16.68
2018-09-01T08:47:27.620Z,16.86
2018-09-01T08:49:57.419Z,17.08
2018-09-01T08:52:27.056Z,17.13
2018-09-01T08:54:56.712Z,16.92
2018-09-01T08:57:26.418Z,16.87
2018-09-01T08:59:56.024Z,16.73
2018-09-01T09:02:25.645Z,16.69
2018-09-01T09:04:55.252Z,17.24
2018-09-01T09:07:24.930Z,17.68
2018-09-01T09:09:54.717Z,17.38
2018-09-01T09:12:24.585Z,17.02
2018-09-01T09:14:54.826Z,17.10
2018-09-01T09:17:24.676Z,17.16
2018-09-01T09:19:54.370Z,16.79
2018-09-01T09:22:24.183Z,17.05
2018-09-01T09:24:53.995Z,16.86
2018-09-01T09:27:23.654Z,17.02
2018-09-01T09:29:53.396Z,17.45
2018-09-01T09:32:23.360Z,16.94
2018-09-01T09:34:52.978Z,17.13
2018-09-01T09:37:22.653Z,17.15
2018-09-01T09:39:52.389Z,17.51
2018-09-01T09:42:22.010Z,17.96
2018-09-01T09:44:51.789Z,17.79
2018-09-01T09:47:21.502Z,17.75
2018-09-01T09:49:51.542Z,17.47
2018-09-01T09:52:21.445Z,18.06
2018-09-01T09:54:51.125Z,18.04
2018-09-01T09:57:20.853Z,18.31
2018-09-01T09:59:50.456Z,18.88
2018-09-01T10:02:20.090Z,18.65
2018-09-01T10:04:49.711Z,18.97
2018-09-01T10:07:19.540Z,18.30
2018-09-01T10:09:49.208Z,17.76
2018-09-01T10:12:19.032Z,17.51
2018-09-01T10:14:48.749Z,17.94
2018-09-01T10:17:18.544Z,17.75
2018-09-01T10:19:48.880Z,17.76
2018-09-01T10:22:18.556Z,18.73
2018-09-01T10:24:48.244Z,18.20
2018-09-01T10:27:18.366Z,18.19
2018-09-01T10:29:48.338Z,18.29
2018-09-01T10:32:18.438Z,18.54
2018-09-01T10:34:48.128Z,18.44
2018-09-01T10:37:18.421Z,18.64
2018-09-01T10:39:48.265Z,18.95
2018-09-01T10:42:18.300Z,18.84
2018-09-01T10:44:48.362Z,18.78
2018-09-01T10:47:18.665Z,19.27
2018-09-01T10:49:49.464Z,19.91
2018-09-01T10:52:20.442Z,19.64
2018-09-01T10:54:50.125Z,19.30
2018-09-01T10:57:20.248Z,18.81
2018-09-01T10:59:50.172Z,18.91
2018-09-01T11:02:20.490Z,18.76
2018-09-01T11:04:50.234Z,18.58
2018-09-01T11:07:20.284Z,19.25
2018-09-01T11:09:49.973Z,19.24
2018-09-01T11:12:19.983Z,19.24
2018-09-01T11:14:49.883Z,18.87
2018-09-01T11:17:20.232Z,19.08
2018-09-01T11:19:50.097Z,18.85
2018-09-01T11:22:20.284Z,19.41
2018-09-01T11:24:49.922Z,19.69
2018-09-01T11:27:19.690Z,19.55
2018-09-01T11:29:49.454Z,19.55
2018-09-01T11:32:19.364Z,19.38
2018-09-01T11:34:48.978Z,19.33
2018-09-01T11:37:18.617Z,19.70
2018-09-01T11:39:51.129Z,20.29
2018-09-01T11:42:20.984Z,19.85
2018-09-01T11:44:50.571Z,19.24
2018-09-01T11:47:20.484Z,19.31
2018-09-01T11:49:50.161Z,18.76
2018-09-01T11:52:20.271Z,18.77
2018-09-01T11:54:49.844Z,18.60
2018-09-01T11:57:19.485Z,18.70
2018-09-01T11:59:49.071Z,19.01
2018-09-01T12:02:18.811Z,19.35
2018-09-01T12:04:48.647Z,19.77
2018-09-01T12:07:18.360Z,19.90
2018-09-01T12:09:48.259Z,19.61
2018-09-01T12:12:17.882Z,19.94
2018-09-01T12:14:47.658Z,20.03
2018-09-01T12:17:17.318Z,20.40
2018-09-01T12:19:46.932Z,20.14
2018-09-01T12:22:16.583Z,20.11
2018-09-01T12:24:46.251Z,20.07
2018-09-01T12:27:18.796Z,20.22
2018-09-01T12:29:48.415Z,19.49
2018-09-01T12:32:18.120Z,19.43
2018-09-01T12:34:47.761Z,19.69
2018-09-01T12:37:17.613Z,19.64
2018-09-01T12:39:47.263Z,19.88
2018-09-01T12:42:16.860Z,19.88
2018-09-01T12:44:46.609Z,20.04
2018-09-01T12:47:16.206Z,20.04
2018-09-01T12:49:45.817Z,20.06
2018-09-01T12:52:15.402Z,20.13
2018-09-01T12:54:45.741Z,19.94
2018-09-01T12:57:15.313Z,20.06
2018-09-01T12:59:45.064Z,20.53
2018-09-01T13:02:22.363Z,20.19
2018-09-01T13:04:52.052Z,20.07
2018-09-01T13:07:22.114Z,20.04
2018-09-01T13:09:51.745Z,20.25
2018-09-01T13:12:21.493Z,20.41
2018-09-01T13:14:51.127Z,21.14
2018-09-01T13:17:20.713Z,21.13
2018-09-01T13:19:50.312Z,21.31
2018-09-01T13:22:20.197Z,21.49
2018-09-01T13:24:49.860Z,21.03
2018-09-01T13:27:19.733Z,21.02
2018-09-01T13:29:49.327Z,20.27
2018-09-01T13:32:18.956Z,20.13
2018-09-01T13:34:48.575Z,19.94
2018-09-01T13:37:18.228Z,19.81
2018-09-01T13:39:47.825Z,19.69
2018-09-01T13:42:17.501Z,19.80
2018-09-01T13:44:47.271Z,19.66
2018-09-01T13:47:16.962Z,20.24
2018-09-01T13:49:46.667Z,19.99
2018-09-01T13:52:16.526Z,20.08
2018-09-01T13:54:46.184Z,20.43
2018-09-01T13:57:15.952Z,20.52
2018-09-01T13:59:45.680Z,20.49
2018-09-01T14:02:15.392Z,20.74
2018-09-01T14:04:45.543Z,20.99
2018-09-01T14:07:15.167Z,20.32
2018-09-01T14:09:44.808Z,20.31
2018-09-01T14:12:14.439Z,20.36
2018-09-01T14:14:44.258Z,20.60
2018-09-01T14:17:13.782Z,21.05
2018-09-01T14:19:43.428Z,20.64
2018-09-01T14:22:12.977Z,20.44
2018-09-01T14:24:42.777Z,20.96
2018-09-01T14:27:12.352Z,21.07
2018-09-01T14:29:42.048Z,20.97
2018-09-01T14:32:11.998Z,21.12
2018-09-01T14:34:41.672Z,20.90
2018-09-01T14:37:11.421Z,21.23
2018-09-01T14:39:41.204Z,20.78
2018-09-01T14:42:10.834Z,20.84
2018-09-01T14:44:40.547Z,21.21
2018-09-01T14:47:10.254Z,21.18
2018-09-01T14:49:39.932Z,20.95
2018-09-01T14:52:09.504Z,20.80
2018-09-01T14:54:39.515Z,20.93
2018-09-01T14:57:09.250Z,20.46
2018-09-01T14:59:39.743Z,20.60
2018-09-01T15:02:09.468Z,20.55
2018-09-01T15:04:39.709Z,20.56
2018-09-01T15:07:09.542Z,20.73
2018-09-01T15:09:39.442Z,20.48
2018-09-01T15:12:09.437Z,20.52
2018-09-01T15:14:39.620Z,20.31
2018-09-01T15:17:09.344Z,20.52
2018-09-01T15:19:39.302Z,20.51
2018-09-01T15:22:09.280Z,20.51
2018-09-01T15:24:39.185Z,20.54
2018-09-01T15:27:08.956Z,20.57
2018-09-01T15:29:38.882Z,20.54
2018-09-01T15:32:09.135Z,20.69
2018-09-01T15:34:39.393Z,20.71
2018-09-01T15:37:09.138Z,20.64
2018-09-01T15:39:38.989Z,20.60
2018-09-01T15:42:08.932Z,20.91
2018-09-01T15:44:38.872Z,20.89
2018-09-01T15:47:08.959Z,21.20
2018-09-01T15:49:38.593Z,20.97
2018-09-01T15:52:08.896Z,21.00
2018-09-01T15:54:38.528Z,21.02
2018-09-01T15:57:08.313Z,20.59
2018-09-01T15:59:38.068Z,20.66
2018-09-01T16:02:07.893Z,20.55
2018-09-01T16:04:37.648Z,20.51
2018-09-01T16:07:07.490Z,20.42
2018-09-01T16:09:37.253Z,20.41
2018-09-01T16:12:07.708Z,20.47
2018-09-01T16:14:37.676Z,20.49
2018-09-01T16:17:07.636Z,20.42
2018-09-01T16:19:37.361Z,20.53
2018-09-01T16:22:07.034Z,20.30
2018-09-01T16:24:37.609Z,20.41
2018-09-01T16:27:07.192Z,20.12
2018-09-01T16:29:36.860Z,20.34
2018-09-01T16:32:07.161Z,20.36
2018-09-01T16:34:37.045Z,20.33
2018-09-01T16:37:06.898Z,20.48
2018-09-01T16:39:36.576Z,20.70
2018-09-01T16:42:06.211Z,20.46
2018-09-01T16:44:35.876Z,20.40
2018-09-01T16:47:05.959Z,20.59
2018-09-01T16:49:35.617Z,20.44
2018-09-01T16:52:05.398Z,20.38
2018-09-01T16:54:35.077Z,20.31
2018-09-01T16:57:04.771Z,20.03
2018-09-01T16:59:34.608Z,19.93
2018-09-01T17:02:04.248Z,19.94
2018-09-01T17:04:33.940Z,19.81
2018-09-01T17:07:03.625Z,19.68
2018-09-01T17:09:33.420Z,19.65
2018-09-01T17:12:03.132Z,19.65
2018-09-01T17:14:32.800Z,19.60
2018-09-01T17:17:02.661Z,19.47
2018-09-01T17:19:32.313Z,19.49
2018-09-01T17:22:01.985Z,19.45
2018-09-01T17:24:31.597Z,19.42
2018-09-01T17:27:01.229Z,19.38
2018-09-01T17:29:31.057Z,19.24
2018-09-01T17:32:00.779Z,19.31
2018-09-01T17:34:30.385Z,19.29
2018-09-01T17:37:00.138Z,19.24
2018-09-01T17:39:29.758Z,19.17
2018-09-01T17:41:59.495Z,19.16
2018-09-01T17:44:29.432Z,19.14
2018-09-01T17:46:59.145Z,19.03
2018-09-01T17:49:28.945Z,19.06
2018-09-01T17:51:58.663Z,18.98
2018-09-01T17:54:28.677Z,18.97
2018-09-01T17:56:58.374Z,18.94
2018-09-01T17:59:28.015Z,18.91
2018-09-01T18:01:57.821Z,18.79
2018-09-01T18:04:27.591Z,18.78
2018-09-01T18:06:57.215Z,18.75
2018-09-01T18:09:27.083Z,18.59
2018-09-01T18:11:57.341Z,18.48
2018-09-01T18:14:27.108Z,18.43
2018-09-01T18:16:56.875Z,18.34
2018-09-01T18:19:26.583Z,18.53
2018-09-01T18:21:56.327Z,18.45
2018-09-01T18:24:26.067Z,18.43
2018-09-01T18:26:56.306Z,18.39
2018-09-01T18:29:26.060Z,18.27
2018-09-01T18:31:56.307Z,18.19
2018-09-01T18:34:26.044Z,18.14
2018-09-01T18:36:56.019Z,17.95
2018-09-01T18:39:25.848Z,17.90
2018-09-01T18:41:57.252Z,17.76
2018-09-01T18:44:27.169Z,17.65
2018-09-01T18:46:57.254Z,17.79
2018-09-01T18:49:27.495Z,17.69
2018-09-01T18:51:57.667Z,17.79
2018-09-01T18:54:27.496Z,17.79
2018-09-01T18:56:58.543Z,17.78
2018-09-01T18:59:28.279Z,17.74
2018-09-01T19:01:58.070Z,17.74
2018-09-01T19:04:27.697Z,17.50
2018-09-01T19:06:57.759Z,17.52
2018-09-01T19:09:27.597Z,17.47
2018-09-01T19:11:57.522Z,17.28
2018-09-01T19:14:27.173Z,17.24
2018-09-01T19:16:57.509Z,17.13
2018-09-01T19:19:27.140Z,17.02
2018-09-01T19:21:57.536Z,16.96
2018-09-01T19:24:27.653Z,16.92
2018-09-01T19:26:57.518Z,16.96
2018-09-01T19:29:27.575Z,16.94
2018-09-01T19:31:57.567Z,16.88
2018-09-01T19:34:27.254Z,16.96
2018-09-01T19:36:57.662Z,16.82
2018-09-01T19:39:27.494Z,16.93
2018-09-01T19:42:03.967Z,16.71
2018-09-01T19:44:36.633Z,16.69
2018-09-01T19:47:06.944Z,16.64
2018-09-01T19:49:36.495Z,16.42
2018-09-01T19:52:06.641Z,16.54
2018-09-01T19:54:36.482Z,16.68
2018-09-01T19:57:06.791Z,16.68
2018-09-01T19:59:36.506Z,16.47
2018-09-01T20:02:06.557Z,16.45
2018-09-01T20:04:36.547Z,16.55
2018-09-01T20:07:06.279Z,16.52
2018-09-01T20:09:36.006Z,16.44
2018-09-01T20:12:05.794Z,16.36
2018-09-01T20:14:35.532Z,16.33
2018-09-01T20:17:05.678Z,16.33
2018-09-01T20:19:35.507Z,16.32
2018-09-01T20:22:06.984Z,16.28
2018-09-01T20:24:36.712Z,16.23
2018-09-01T20:27:06.736Z,16.18
2018-09-01T20:29:36.409Z,16.09
2018-09-01T20:32:06.765Z,16.01
2018-09-01T20:34:40.432Z,16.11
2018-09-01T20:37:10.113Z,16.00
2018-09-01T20:39:39.802Z,15.99
2018-09-01T20:42:09.658Z,15.93
2018-09-01T20:44:39.366Z,15.99
2018-09-01T20:47:09.042Z,15.80
2018-09-01T20:49:39.084Z,15.78
2018-09-01T20:52:08.759Z,15.80
2018-09-01T20:54:38.545Z,15.71
2018-09-01T20:57:09.009Z,15.70
2018-09-01T20:59:38.736Z,15.61
2018-09-01T21:02:08.991Z,15.51
2018-09-01T21:04:38.686Z,15.51
2018-09-01T21:07:08.928Z,15.55
2018-09-01T21:09:38.674Z,15.59
2018-09-01T21:12:08.870Z,15.62
2018-09-01T21:14:38.550Z,15.60
2018-09-01T21:17:08.951Z,15.54
2018-09-01T21:19:38.800Z,15.44
2018-09-01T21:22:08.778Z,15.34
2018-09-01T21:24:38.557Z,15.54
2018-09-01T21:27:08.781Z,15.44
2018-09-01T21:29:38.540Z,15.33
2018-09-01T21:32:08.743Z,15.29
2018-09-01T21:34:38.389Z,15.25
2018-09-01T21:37:08.658Z,15.25
2018-09-01T21:39:38.309Z,15.22
2018-09-01T21:42:08.346Z,15.19
2018-09-01T21:44:38.059Z,15.16
2018-09-01T21:47:07.980Z,15.16
2018-09-01T21:49:37.710Z,15.22
2018-09-01T21:52:07.570Z,15.15
2018-09-01T21:54:37.579Z,15.12
2018-09-01T21:57:07.999Z,15.08
2018-09-01T21:59:37.637Z,15.07
2018-09-01T22:02:12.707Z,15.03
2018-09-01T22:04:47.605Z,15.00
2018-09-01T22:07:20.328Z,15.04
2018-09-01T22:09:50.991Z,15.00
2018-09-01T22:12:21.161Z,14.95
2018-09-01T22:14:52.003Z,14.96
2018-09-01T22:17:22.896Z,14.84
2018-09-01T22:19:52.515Z,14.85
2018-09-01T22:22:22.152Z,14.83
2018-09-01T22:24:51.795Z,14.89
2018-09-01T22:27:21.517Z,14.89
2018-09-01T22:29:51.171Z,14.85
2018-09-01T22:32:20.821Z,14.92
2018-09-01T22:34:50.551Z,14.90
2018-09-01T22:37:20.195Z,14.89
2018-09-01T22:39:49.759Z,14.93
2018-09-01T22:42:19.442Z,14.86
2018-09-01T22:44:49.329Z,14.89
2018-09-01T22:47:21.519Z,14.85
2018-09-01T22:49:51.144Z,14.89
2018-09-01T22:52:20.834Z,14.89
2018-09-01T22:54:50.885Z,14.89
2018-09-01T22:57:20.812Z,14.96
2018-09-01T22:59:50.702Z,14.84
2018-09-01T23:02:20.392Z,14.84
2018-09-01T23:04:49.975Z,14.79
2018-09-01T23:07:19.573Z,14.77
2018-09-01T23:09:49.353Z,14.74
2018-09-01T23:12:19.385Z,14.65
2018-09-01T23:14:48.930Z,14.62
2018-09-01T23:17:18.865Z,14.60
2018-09-01T23:19:48.502Z,14.51
2018-09-01T23:22:18.506Z,14.52
2018-09-01T23:24:48.103Z,14.43
2018-09-01T23:27:18.164Z,14.39
2018-09-01T23:29:47.708Z,14.53
2018-09-01T23:32:17.648Z,14.37
2018-09-01T23:34:47.411Z,14.23
2018-09-01T23:37:17.538Z,14.23
2018-09-01T23:39:47.175Z,14.21
2018-09-01T23:42:16.806Z,14.26
2018-09-01T23:44:46.652Z,14.18
2018-09-01T23:47:16.226Z,14.20
2018-09-01T23:49:45.945Z,14.17
2018-09-01T23:52:15.529Z,14.15
2018-09-01T23:54:45.235Z,14.09
2018-09-01T23:57:14.814Z,14.08
2018-09-01T23:59:44.563Z,14.02
